Time,TemperatureF,DewpointF,PressureIn,WindDirection,WindDirectionDegrees,WindSpeedMPH,WindSpeedGustMPH,Humidity,HourlyPrecipIn,Conditions,Clouds,dailyrainin,SoftwareType,DateUTC
2013-04-28 00:00:00,37.0,37.0,-100.00,North,-999,-999.0,-999.0,103,-99.99,,,0.01,,2013-04-28 07:00:00,
2013-04-28 00:52:00,37.0,37.0,-100.00,North,-999,-999.0,-999.0,103,-99.99,,,0.01,,2013-04-28 07:52:00,
2013-04-28 01:00:00,37.0,37.0,-100.00,SSE,155,1.0,2.0,103,-99.99,,,0.01,,2013-04-28 08:00:00,
2013-04-28 02:00:00,37.0,37.0,-100.00,SSW,198,2.0,4.0,103,-99.99,,,0.01,,2013-04-28 09:00:00,
2013-04-28 03:00:00,36.0,36.0,-100.00,SSW,208,1.0,3.0,103,-99.99,,,0.01,,2013-04-28 10:00:00,
2013-04-28 04:00:00,36.0,36.0,-100.00,SSW,207,1.0,2.0,103,-99.99,,,-99.99,,2013-04-28 11:00:00,
2013-04-28 05:00:00,36.0,36.0,-100.00,South,176,2.0,2.0,103,-99.99,,,0.02,,2013-04-28 12:00:00,
2013-04-28 06:00:00,36.0,36.0,-100.00,SSE,168,2.0,2.0,103,-99.99,,,0.01,,2013-04-28 13:00:00,
2013-04-28 07:00:00,36.0,36.0,-100.00,SSW,209,1.0,3.0,103,-99.99,,,0.01,,2013-04-28 14:00:00,
2013-04-28 08:00:00,35.0,35.0,-100.00,ESE,121,2.0,3.0,103,-99.99,,,0.01,,2013-04-28 15:00:00,
2013-04-28 09:00:00,37.0,37.0,-100.00,SSW,193,2.0,3.0,103,-99.99,,,0.02,,2013-04-28 16:00:00,
2013-04-28 10:00:00,36.0,36.0,-100.00,SE,135,2.0,3.0,103,-99.99,,,0.02,,2013-04-28 17:00:00,
2013-04-28 11:00:00,36.0,36.0,-100.00,SW,215,2.0,3.0,103,-99.99,,,0.02,,2013-04-28 18:00:00,
2013-04-28 12:00:00,37.0,37.0,-100.00,South,176,2.0,3.0,103,-99.99,,,0.01,,2013-04-28 19:00:00,
2013-04-28 13:00:00,38.0,38.0,-100.00,SW,232,1.0,3.0,102,-99.99,,,0.02,,2013-04-28 20:00:00,
2013-04-28 14:00:00,39.0,39.0,-100.00,WNW,286,2.0,3.0,102,-99.99,,,0.02,,2013-04-28 21:00:00,
2013-04-28 15:00:00,39.0,39.0,-100.00,South,183,2.0,3.0,102,-99.99,,,0.01,,2013-04-28 22:00:00,
2013-04-28 16:00:00,39.0,39.0,-100.00,SW,234,1.0,2.0,101,-99.99,,,0.00,,2013-04-28 23:00:00,
2013-04-28 17:00:00,38.0,38.0,-100.00,SSW,201,2.0,3.0,100,-99.99,,,0.01,,2013-04-29 00:00:00,
2013-04-28 17:52:00,38.0,38.0,-100.00,SSW,201,2.0,3.0,100,-99.99,,,0.01,,2013-04-29 00:52:00,
2013-04-28 18:00:00,36.0,36.0,-100.00,South,182,1.0,3.0,100,-99.99,,,0.00,,2013-04-29 01:00:00,
2013-04-28 19:00:00,36.0,36.0,-100.00,WNW,295,1.0,3.0,101,-99.99,,,0.00,,2013-04-29 02:00:00,
2013-04-28 20:00:00,35.0,35.0,-100.00,South,186,1.0,2.0,102,-99.99,,,0.00,,2013-04-29 03:00:00,
2013-04-28 21:00:00,35.0,35.0,-100.00,SSE,152,1.0,3.0,102,-99.99,,,0.00,,2013-04-29 04:00:00,
2013-04-28 22:00:00,34.0,34.0,-100.00,SSW,208,2.0,4.0,103,-99.99,,,0.01,,2013-04-29 05:00:00,
2013-04-28 23:00:00,33.0,33.0,-100.00,SSW,199,2.0,5.0,103,-99.99,,,0.01,,2013-04-29 06:00:00,